Terminal Aerodrome Forecast
Issued by NWS

Home | Current Version | Previous Version | Text Only | Print | Product List | Glossary On
Versions: 1 2 3 4 5 6 7 8 9 10 11 12 13 14 15 16 17 18 19 20 21
609
FTUS46 KHNX 081126
TAFVIS
TAF
KVIS 081126Z 0812/0912 00000KT 1 1/2SM BR SKC
      TEMPO 0813/0817 1/4SM FG VV002
     FM081800 VRB03KT 3SM BR SKC
     FM081900 VRB03KT 5SM HZ SKC
     FM082100 VRB03KT P6SM SKC
     FM090500 00000KT 4SM BR SKC
     FM090800 00000KT 2SM BR SKC
      TEMPO 0908/0912 1/2SM FG VV002=

USA.gov is the U.S. government's official web portal to all federal, state and local government web resources and services.